Time;durP1;ratioP1;P1;durP2;ratioP2;P2;SDS_P1;SDS_P2;PMS_P1;PMS_P2;Temp;Humidity;BMP_temperature;BMP_pressure;BME280_temperature;BME280_humidity;BME280_pressure;Samples;Min_cycle;Max_cycle;Signal;HPM_P1;HPM_P2
2024/03/18 00:00:14;;;;;;;24.30;10.60;;;;;;;5.67;100.00;99281.75;4981259;28;20498;-77
2024/03/18 00:02:42;;;;;;;29.00;11.00;;;;;;;5.76;100.00;99285.34;5000817;28;20072;-78
2024/03/18 00:05:10;;;;;;;31.10;10.80;;;;;;;5.82;100.00;99280.41;5016641;28;20099;-78
2024/03/18 00:07:36;;;;;;;25.30;11.27;;;;;;;5.77;100.00;99279.94;5017239;28;20060;-78
2024/03/18 00:10:03;;;;;;;29.03;11.63;;;;;;;5.87;100.00;99283.47;5033177;28;20033;-78
2024/03/18 00:12:29;;;;;;;25.70;11.47;;;;;;;5.88;100.00;99289.56;4977072;28;20054;-78
2024/03/18 00:14:55;;;;;;;21.40;10.27;;;;;;;5.94;100.00;99289.84;4946367;28;20547;-77
2024/03/18 00:17:22;;;;;;;23.77;10.80;;;;;;;6.06;100.00;99287.91;5018897;28;20057;-78
2024/03/18 00:19:48;;;;;;;22.17;9.93;;;;;;;6.06;100.00;99288.75;4998868;28;20619;-77
2024/03/18 00:22:15;;;;;;;27.63;10.47;;;;;;;6.08;100.00;99293.88;4998799;28;20053;-78
2024/03/18 00:24:41;;;;;;;23.43;10.40;;;;;;;6.09;100.00;99288.47;5016467;28;20110;-78
2024/03/18 00:27:07;;;;;;;29.67;12.23;;;;;;;6.02;100.00;99292.66;5016416;28;20128;-78
2024/03/18 00:29:34;;;;;;;33.70;12.57;;;;;;;5.99;100.00;99292.91;5003552;28;20037;-78
2024/03/18 00:32:00;;;;;;;23.20;11.33;;;;;;;6.05;100.00;99292.38;5020141;28;20057;-78
2024/03/18 00:34:25;;;;;;;24.90;11.27;;;;;;;6.08;100.00;99300.00;4996766;28;20064;-78
2024/03/18 00:36:51;;;;;;;30.57;12.10;;;;;;;6.15;100.00;99297.66;4959428;28;20092;-79
2024/03/18 00:39:17;;;;;;;25.33;12.05;;;;;;;6.33;100.00;99295.97;4991923;28;20068;-77
2024/03/18 00:41:46;;;;;;;29.37;12.10;;;;;;;6.19;100.00;99293.75;4960716;28;20077;-78
2024/03/18 00:44:15;;;;;;;24.93;12.03;;;;;;;6.12;100.00;99293.47;4997967;28;20111;-77
2024/03/18 00:46:43;;;;;;;29.47;11.20;;;;;;;6.14;100.00;99302.06;5018036;28;20049;-77
2024/03/18 00:49:09;;;;;;;36.00;13.30;;;;;;;6.01;100.00;99304.13;5014087;28;20131;-78
2024/03/18 00:51:34;;;;;;;28.27;12.13;;;;;;;5.99;100.00;99306.09;5047830;28;20472;-78
2024/03/18 00:54:00;;;;;;;24.03;11.97;;;;;;;6.05;100.00;99297.63;5019314;28;20053;-77
2024/03/18 00:56:27;;;;;;;25.37;10.70;;;;;;;6.12;100.00;99306.66;5020038;28;20092;-77
2024/03/18 00:58:54;;;;;;;27.50;10.20;;;;;;;6.16;100.00;99297.50;5003992;28;20519;-77
2024/03/18 01:01:20;;;;;;;26.25;10.98;;;;;;;6.17;100.00;99293.03;4987429;28;20059;-76
2024/03/18 01:03:46;;;;;;;27.05;11.18;;;;;;;6.21;100.00;99302.38;5015511;28;20139;-77
2024/03/18 01:06:12;;;;;;;22.00;10.87;;;;;;;6.26;100.00;99297.47;5012227;28;20066;-78
2024/03/18 01:08:38;;;;;;;34.40;13.03;;;;;;;6.27;100.00;99297.34;5050765;28;20048;-79
2024/03/18 01:11:04;;;;;;;25.93;11.13;;;;;;;6.31;100.00;99297.91;5034523;28;20044;-79
2024/03/18 01:13:33;;;;;;;23.33;11.10;;;;;;;6.33;100.00;99303.88;5017776;28;20051;-78
2024/03/18 01:15:59;;;;;;;21.07;10.07;;;;;;;6.36;100.00;99301.81;5034743;28;20049;-79
2024/03/18 01:18:27;;;;;;;24.43;10.53;;;;;;;6.32;100.00;99305.69;5034422;28;20139;-78
2024/03/18 01:20:54;;;;;;;28.50;11.83;;;;;;;6.36;100.00;99308.88;5034617;28;20390;-78
2024/03/18 01:23:20;;;;;;;33.17;13.67;;;;;;;6.23;100.00;99306.50;5018679;28;20055;-75
2024/03/18 01:25:45;;;;;;;29.10;12.97;;;;;;;6.21;100.00;99316.34;5018201;28;20052;-78
2024/03/18 01:28:11;;;;;;;31.15;13.05;;;;;;;6.20;100.00;99309.44;5053618;28;20078;-77
2024/03/18 01:30:37;;;;;;;29.10;13.88;;;;;;;6.19;100.00;99312.22;5042683;28;20059;-77
2024/03/18 01:33:03;;;;;;;33.43;14.20;;;;;;;6.11;100.00;99315.53;5051272;28;20045;-77
2024/03/18 01:35:33;;;;;;;55.25;17.65;;;;;;;5.86;100.00;99308.16;5075569;28;20091;-77
2024/03/18 01:38:00;;;;;;;41.80;15.87;;;;;;;5.79;100.00;99307.00;5054358;28;20132;-77
2024/03/18 01:40:25;;;;;;;41.50;17.30;;;;;;;5.63;100.00;99305.88;5054924;28;20467;-77
2024/03/18 01:42:51;;;;;;;47.23;18.47;;;;;;;5.51;100.00;99310.41;5041979;28;20110;-75
2024/03/18 01:45:24;;;;;;;36.77;15.47;;;;;;;5.62;100.00;99305.03;5074954;28;20047;-78
2024/03/18 01:47:54;;;;;;;37.63;14.70;;;;;;;5.56;100.00;99302.94;5075282;28;20076;-77
2024/03/18 01:50:20;;;;;;;43.73;16.87;;;;;;;5.58;100.00;99316.78;5058510;28;20063;-79
2024/03/18 01:52:46;;;;;;;43.33;16.67;;;;;;;5.44;100.00;99314.53;5074256;28;20043;-77
2024/03/18 01:55:12;;;;;;;52.93;19.30;;;;;;;5.42;100.00;99316.47;5040715;28;20070;-78
2024/03/18 01:57:39;;;;;;;38.10;16.43;;;;;;;5.43;100.00;99326.03;5057713;28;20041;-78
2024/03/18 02:00:32;;;;;;;33.83;15.13;;;;;;;5.60;100.00;99328.03;5025261;28;20194;-78
2024/03/18 02:03:08;;;;;;;31.03;13.07;;;;;;;5.76;100.00;99319.63;5041215;28;20044;-79
2024/03/18 02:05:35;;;;;;;27.47;12.60;;;;;;;5.78;100.00;99331.66;5041452;28;20067;-79
2024/03/18 02:08:01;;;;;;;36.23;13.97;;;;;;;5.77;100.00;99332.66;5057912;28;20476;-78
2024/03/18 02:10:29;;;;;;;47.20;16.73;;;;;;;5.65;100.00;99327.63;5041958;28;20044;-79
2024/03/18 02:13:02;;;;;;;48.83;16.67;;;;;;;5.66;100.00;99321.41;5057123;28;20044;-76
2024/03/18 02:15:31;;;;;;;48.87;17.43;;;;;;;5.44;100.00;99321.59;5058084;28;20128;-77
2024/03/18 02:17:58;;;;;;;46.27;17.77;;;;;;;5.38;100.00;99324.78;5041961;28;20040;-76
2024/03/18 02:20:24;;;;;;;32.73;15.77;;;;;;;5.38;100.00;99319.50;5057059;28;20052;-77
2024/03/18 02:22:51;;;;;;;51.53;19.07;;;;;;;5.16;100.00;99313.47;5019495;28;20532;-76
2024/03/18 02:25:17;;;;;;;44.23;17.53;;;;;;;5.12;100.00;99325.22;5014343;28;20104;-76
2024/03/18 02:27:46;;;;;;;59.93;17.13;;;;;;;5.17;100.00;99322.19;4999761;28;20065;-76
2024/03/18 02:30:12;;;;;;;40.53;16.47;;;;;;;5.17;100.00;99328.28;5005162;28;20144;-77
2024/03/18 02:32:41;;;;;;;43.30;16.43;;;;;;;5.14;100.00;99325.06;4992543;28;20067;-77
2024/03/18 02:35:11;;;;;;;45.27;16.97;;;;;;;5.14;100.00;99325.06;5022705;28;20050;-77
2024/03/18 02:37:38;;;;;;;46.95;16.75;;;;;;;5.10;100.00;99328.94;5018434;28;20049;-76
2024/03/18 02:40:08;;;;;;;43.90;16.87;;;;;;;5.13;100.00;99328.69;4999565;28;20053;-78
2024/03/18 02:42:37;;;;;;;55.40;18.63;;;;;;;5.14;100.00;99319.81;4999487;28;20033;-76
2024/03/18 02:45:09;;;;;;;55.37;17.97;;;;;;;5.05;100.00;99317.97;4999228;28;20037;-80
2024/03/18 02:47:37;;;;;;;34.67;16.97;;;;;;;4.97;100.00;99320.41;4969780;28;20107;-78
2024/03/18 02:50:04;;;;;;;49.10;17.60;;;;;;;4.82;100.00;99326.97;5005316;28;20069;-78
2024/03/18 02:52:31;;;;;;;51.47;19.07;;;;;;;4.86;100.00;99323.97;5007531;28;20045;-79
2024/03/18 02:54:58;;;;;;;43.40;17.13;;;;;;;4.87;100.00;99324.81;4986549;28;20053;-79
2024/03/18 02:57:25;;;;;;;43.73;18.10;;;;;;;4.94;100.00;99328.56;5000830;28;20120;-80
2024/03/18 02:59:51;;;;;;;25.67;13.13;;;;;;;5.11;100.00;99334.09;4998067;28;20133;-79
2024/03/18 03:02:17;;;;;;;29.00;13.87;;;;;;;5.21;100.00;99336.75;4942419;28;20062;-77
2024/03/18 03:04:43;;;;;;;22.87;12.20;;;;;;;5.34;100.00;99334.72;4903237;29;20083;-73
2024/03/18 03:07:10;;;;;;;26.27;12.30;;;;;;;5.46;100.00;99336.28;4923287;29;20066;-80
2024/03/18 03:09:36;;;;;;;27.63;12.60;;;;;;;5.60;100.00;99340.34;4909154;29;20154;-81
2024/03/18 03:12:02;;;;;;;24.10;11.67;;;;;;;5.61;100.00;99345.53;4907341;29;20055;-81
2024/03/18 03:14:28;;;;;;;20.73;11.07;;;;;;;5.67;100.00;99344.97;4903358;29;20103;-74
2024/03/18 03:16:55;;;;;;;30.00;11.93;;;;;;;5.72;100.00;99349.84;4886792;29;20098;-70
2024/03/18 03:19:22;;;;;;;20.37;11.50;;;;;;;5.75;100.00;99352.22;4918417;29;20569;-78
2024/03/18 03:21:47;;;;;;;28.07;11.40;;;;;;;5.80;100.00;99358.72;4902533;29;20067;-76
2024/03/18 03:24:13;;;;;;;25.57;11.73;;;;;;;5.83;100.00;99352.38;4887173;29;20087;-80
2024/03/18 03:26:39;;;;;;;27.07;11.27;;;;;;;5.86;100.00;99358.22;4886529;29;20554;-80
2024/03/18 03:29:05;;;;;;;27.07;11.73;;;;;;;5.89;100.00;99355.31;4902720;29;20051;-76
2024/03/18 03:31:30;;;;;;;26.50;12.13;;;;;;;5.93;100.00;99356.72;4923964;28;20454;-78
2024/03/18 03:33:58;;;;;;;25.67;12.47;;;;;;;5.98;100.00;99359.75;4971657;28;20158;-78
2024/03/18 03:36:25;;;;;;;33.60;13.17;;;;;;;5.86;100.00;99355.59;4990619;28;20148;-78
2024/03/18 03:38:51;;;;;;;22.80;12.87;;;;;;;5.86;100.00;99355.59;5019481;28;20151;-77
2024/03/18 03:41:16;;;;;;;24.67;13.03;;;;;;;5.92;100.00;99356.88;5050848;28;20071;-77
2024/03/18 03:43:42;;;;;;;28.70;12.07;;;;;;;5.95;100.00;99360.03;5043494;28;20148;-77
2024/03/18 03:46:08;;;;;;;23.10;12.07;;;;;;;6.03;100.00;99370.75;5093882;28;20086;-75
2024/03/18 03:48:34;;;;;;;32.07;12.90;;;;;;;6.01;100.00;99367.41;5056966;28;20482;-73
2024/03/18 03:51:00;;;;;;;23.53;10.83;;;;;;;6.09;100.00;99378.09;5041097;28;20045;-73
2024/03/18 03:53:29;;;;;;;25.17;11.43;;;;;;;6.10;100.00;99369.25;5039424;28;20041;-75
2024/03/18 03:55:56;;;;;;;29.53;12.43;;;;;;;6.13;100.00;99368.13;5039614;28;20139;-74
2024/03/18 03:58:23;;;;;;;24.52;11.32;;;;;;;6.20;100.00;99377.16;5039219;28;20036;-74
2024/03/18 04:00:49;;;;;;;22.13;11.07;;;;;;;6.18;100.00;99361.47;5022867;28;20433;-71
2024/03/18 04:03:20;;;;;;;24.70;11.83;;;;;;;6.24;100.00;99371.47;5056854;28;20174;-73
2024/03/18 04:05:46;;;;;;;24.13;11.43;;;;;;;6.25;100.00;99367.88;5056451;28;20048;-78
2024/03/18 04:08:11;;;;;;;26.83;11.25;;;;;;;6.28;100.00;99379.94;5056522;28;20040;-76
2024/03/18 04:10:38;;;;;;;17.88;10.35;;;;;;;6.30;100.00;99376.22;5022184;28;20458;-76
2024/03/18 04:13:06;;;;;;;23.97;11.43;;;;;;;6.30;100.00;99381.50;5038051;28;20040;-75
2024/03/18 04:15:32;;;;;;;27.85;11.48;;;;;;;6.31;100.00;99385.78;5071440;28;20048;-76
2024/03/18 04:17:57;;;;;;;23.87;10.67;;;;;;;6.34;100.00;99385.50;5038205;28;20045;-77
2024/03/18 04:20:24;;;;;;;22.70;10.82;;;;;;;6.34;100.00;99392.56;5038513;28;20040;-77
2024/03/18 04:22:51;;;;;;;24.83;11.32;;;;;;;6.38;100.00;99400.06;5021502;28;20978;-74
2024/03/18 04:25:20;;;;;;;28.52;12.90;;;;;;;6.42;100.00;99396.22;5045367;28;20089;-74
2024/03/18 04:27:47;;;;;;;22.58;11.32;;;;;;;6.48;100.00;99400.94;5034100;28;20088;-74
2024/03/18 04:30:17;;;;;;;28.20;11.70;;;;;;;6.54;100.00;99408.28;5041675;28;20115;-74
2024/03/18 04:32:44;;;;;;;24.17;11.50;;;;;;;6.56;100.00;99406.34;5045393;28;20036;-75
2024/03/18 04:35:11;;;;;;;28.50;11.55;;;;;;;6.56;100.00;99405.50;5032247;28;20037;-73
2024/03/18 04:37:46;;;;;;;28.08;12.07;;;;;;;6.56;100.00;99408.16;5000620;28;20037;-78
2024/03/18 04:40:16;;;;;;;27.08;11.50;;;;;;;6.58;100.00;99417.59;5023609;28;20045;-79
2024/03/18 04:42:42;;;;;;;30.77;12.27;;;;;;;6.53;100.00;99414.50;4983037;28;20105;-80
2024/03/18 04:45:10;;;;;;;26.25;11.25;;;;;;;6.56;100.00;99419.53;5010071;28;20299;-77
2024/03/18 04:48:14;;;;;;;33.95;11.98;;;;;;;6.61;100.00;99419.94;4988118;28;20464;-75
2024/03/18 04:50:41;;;;;;;34.53;13.88;;;;;;;6.57;100.00;99413.28;4939913;28;20166;-78
2024/03/18 04:53:06;;;;;;;28.70;12.38;;;;;;;6.59;100.00;99424.53;4979098;28;20149;-75
2024/03/18 04:55:34;;;;;;;23.23;11.10;;;;;;;6.62;100.00;99415.50;4973836;28;20058;-75
2024/03/18 04:58:01;;;;;;;25.77;11.80;;;;;;;6.74;100.00;99423.16;4929509;28;20114;-76
2024/03/18 05:00:28;;;;;;;29.15;11.60;;;;;;;6.73;100.00;99424.09;4950881;28;20046;-78
2024/03/18 05:02:54;;;;;;;23.77;11.38;;;;;;;6.72;100.00;99427.72;4964604;28;20581;-77
2024/03/18 05:05:21;;;;;;;26.13;11.85;;;;;;;6.81;100.00;99429.53;4926483;28;20237;-74
2024/03/18 05:07:48;;;;;;;20.45;10.13;;;;;;;6.84;100.00;99420.50;4970020;28;20483;-79
2024/03/18 05:10:21;;;;;;;23.20;11.07;;;;;;;6.90;100.00;99420.75;4936025;29;20051;-77
2024/03/18 05:12:59;;;;;;;24.45;10.75;;;;;;;7.01;100.00;99421.59;4935281;29;20043;-76
2024/03/18 05:15:25;;;;;;;28.25;10.93;;;;;;;7.04;100.00;99434.53;4921765;29;20055;-73
2024/03/18 05:17:51;;;;;;;25.45;10.82;;;;;;;7.06;100.00;99429.94;4891577;28;20059;-76
2024/03/18 05:20:18;;;;;;;21.17;9.75;;;;;;;7.12;100.00;99432.03;4923749;28;20077;-70
2024/03/18 05:22:46;;;;;;;21.30;9.95;;;;;;;7.24;100.00;99425.59;4923240;29;20120;-75
2024/03/18 05:25:15;;;;;;;24.00;10.65;;;;;;;7.28;100.00;99434.91;4908531;29;20055;-75
2024/03/18 05:27:43;;;;;;;23.20;10.45;;;;;;;7.34;100.00;99429.88;4908383;29;20150;-73
2024/03/18 05:30:14;;;;;;;19.17;9.55;;;;;;;7.49;100.00;99431.09;4916958;29;20064;-74
2024/03/18 05:32:42;;;;;;;24.02;11.13;;;;;;;7.50;100.00;99426.66;4870866;29;20048;-74
2024/03/18 05:35:13;;;;;;;24.38;10.60;;;;;;;7.66;100.00;99432.97;4863406;29;20049;-79
2024/03/18 05:37:53;;;;;;;22.50;11.02;;;;;;;7.79;100.00;99433.50;4882452;29;20452;-81
2024/03/18 05:40:20;;;;;;;35.05;13.38;;;;;;;7.80;100.00;99443.09;4883292;29;20084;-79
2024/03/18 05:42:49;;;;;;;28.83;12.65;;;;;;;7.63;100.00;99443.00;4899293;29;20523;-79
2024/03/18 05:45:14;;;;;;;35.90;12.93;;;;;;;7.44;100.00;99440.44;4882697;29;20097;-75
2024/03/18 05:47:41;;;;;;;30.98;13.45;;;;;;;7.34;100.00;99444.88;4882664;29;20056;-73
2024/03/18 05:50:08;;;;;;;29.27;12.70;;;;;;;7.47;100.00;99448.91;4882781;29;20449;-74
2024/03/18 05:52:36;;;;;;;19.95;10.55;;;;;;;7.66;100.00;99446.19;4901146;29;20056;-76
2024/03/18 05:55:03;;;;;;;22.40;10.98;;;;;;;7.82;100.00;99457.00;4886148;29;20074;-79
2024/03/18 05:57:32;;;;;;;22.05;10.43;;;;;;;7.99;100.00;99455.41;4904654;29;20052;-78
2024/03/18 05:59:59;;;;;;;20.55;10.32;;;;;;;8.08;100.00;99455.34;4921086;29;20150;-77
2024/03/18 06:02:28;;;;;;;24.27;10.80;;;;;;;8.15;100.00;99453.78;4926487;28;20611;-78
2024/03/18 06:04:54;;;;;;;23.30;10.15;;;;;;;8.13;100.00;99455.72;4926091;28;20421;-78
2024/03/18 06:07:23;;;;;;;20.52;10.23;;;;;;;8.17;100.00;99458.91;4920609;29;20575;-77
2024/03/18 06:09:50;;;;;;;24.17;9.70;;;;;;;8.23;100.00;99455.72;4920057;29;20490;-78
2024/03/18 06:12:17;;;;;;;26.17;9.80;;;;;;;8.28;100.00;99456.13;4943906;29;20069;-77
2024/03/18 06:14:44;;;;;;;32.63;11.50;;;;;;;8.23;100.00;99463.66;4947343;28;20078;-76
2024/03/18 06:17:11;;;;;;;21.15;9.88;;;;;;;8.20;100.00;99462.13;4977741;28;20444;-78
2024/03/18 06:19:36;;;;;;;24.70;10.48;;;;;;;8.20;100.00;99459.47;4962898;28;20058;-77
2024/03/18 06:22:09;;;;;;;26.83;11.20;;;;;;;8.25;100.00;99469.63;4976536;28;20488;-77
2024/03/18 06:25:54;;;;;;;25.45;10.05;;;;;;;8.24;100.00;99473.28;4959760;28;20085;-79
2024/03/18 06:27:21;;;;;;;26.92;9.95;;;;;;;8.32;100.00;99473.34;4960890;28;20149;-77
2024/03/18 06:29:48;;;;;;;23.67;9.90;;;;;;;8.36;100.00;99474.72;4981443;28;20511;-77
2024/03/18 06:32:14;;;;;;;19.65;9.70;;;;;;;8.38;100.00;99478.03;4964884;28;20053;-77
2024/03/18 06:34:39;;;;;;;22.23;9.00;;;;;;;8.41;100.00;99469.84;4989753;28;20176;-77
2024/03/18 06:37:05;;;;;;;26.33;9.43;;;;;;;8.46;100.00;99478.16;4986360;28;20040;-81
2024/03/18 06:39:32;;;;;;;20.02;8.90;;;;;;;8.50;100.00;99482.19;5038704;28;20087;-77
2024/03/18 06:41:59;;;;;;;17.08;8.48;;;;;;;8.55;100.00;99478.09;5021176;28;20068;-77
2024/03/18 06:44:26;;;;;;;18.92;8.68;;;;;;;8.56;100.00;99482.38;5021789;28;20056;-78
2024/03/18 06:46:52;;;;;;;19.77;8.30;;;;;;;8.59;100.00;99484.75;5005075;28;20089;-77
2024/03/18 06:49:17;;;;;;;23.05;9.52;;;;;;;8.59;100.00;99481.28;5054705;28;20032;-77
2024/03/18 06:51:45;;;;;;;22.17;9.30;;;;;;;8.62;100.00;99485.44;5006045;28;20045;-77
2024/03/18 06:54:11;;;;;;;23.35;9.10;;;;;;;8.67;100.00;99491.13;5039045;28;20104;-77
2024/03/18 06:56:37;;;;;;;22.90;9.80;;;;;;;8.70;100.00;99481.06;5037430;28;20049;-82
2024/03/18 06:59:03;;;;;;;26.48;9.82;;;;;;;8.71;100.00;99485.38;5003734;28;20056;-77
2024/03/18 07:01:29;;;;;;;23.67;10.18;;;;;;;8.73;100.00;99486.06;5020512;28;20107;-77
2024/03/18 07:03:56;;;;;;;20.65;9.93;;;;;;;8.78;100.00;99483.78;5020456;28;20049;-77
2024/03/18 07:06:22;;;;;;;24.92;10.85;;;;;;;8.75;100.00;99484.06;5020283;28;20033;-78
2024/03/18 07:08:49;;;;;;;27.08;11.85;;;;;;;8.73;100.00;99488.72;5020142;28;20063;-78
2024/03/18 07:11:15;;;;;;;22.33;10.48;;;;;;;8.79;100.00;99487.28;5004075;28;20546;-78
2024/03/18 07:13:41;;;;;;;25.00;10.75;;;;;;;8.83;100.00;99486.81;5004215;28;20051;-78
2024/03/18 07:16:08;;;;;;;32.53;12.55;;;;;;;8.87;100.00;99493.50;5020822;28;20450;-77
2024/03/18 07:18:34;;;;;;;29.33;11.77;;;;;;;8.81;100.00;99488.78;5021803;28;20045;-77
2024/03/18 07:21:00;;;;;;;26.23;12.57;;;;;;;8.78;100.00;99486.44;5020407;28;20131;-78
2024/03/18 07:23:26;;;;;;;28.13;11.95;;;;;;;8.79;100.00;99497.84;5004038;28;20100;-77
2024/03/18 07:25:54;;;;;;;32.10;11.10;;;;;;;8.83;100.00;99493.91;5037201;28;20052;-78
2024/03/18 07:28:20;;;;;;;24.83;11.10;;;;;;;8.87;100.00;99490.00;5020006;28;20057;-78
2024/03/18 07:30:47;;;;;;;24.42;11.82;;;;;;;8.95;100.00;99492.75;5003698;28;20045;-80
2024/03/18 07:33:14;;;;;;;20.45;10.40;;;;;;;9.00;100.00;99501.88;5003870;28;20048;-77
2024/03/18 07:35:41;;;;;;;21.80;10.75;;;;;;;9.05;100.00;99496.13;5020116;28;20053;-77
2024/03/18 07:39:05;;;;;;;;;;;;;;;;;;;;;
2024/03/18 07:41:44;;;;;;;23.58;11.18;;;;;;;9.06;100.00;99500.44;4957020;28;20062;-78
2024/03/18 07:44:12;;;;;;;26.02;11.85;;;;;;;9.12;100.00;99500.66;4925000;28;20086;-78
2024/03/18 07:46:38;;;;;;;28.60;11.75;;;;;;;9.13;100.00;99507.66;4956867;28;20070;-78
2024/03/18 07:49:05;;;;;;;35.80;12.90;;;;;;;9.14;100.00;99506.66;4941446;28;20070;-78
2024/03/18 07:51:31;;;;;;;24.98;12.43;;;;;;;9.16;100.00;99512.63;4943278;28;20354;-77
2024/03/18 07:53:56;;;;;;;34.13;13.13;;;;;;;9.16;100.00;99507.34;4948193;28;20175;-78
2024/03/18 07:56:22;;;;;;;31.40;13.38;;;;;;;9.15;100.00;99504.84;4918462;29;20051;-78
2024/03/18 07:58:48;;;;;;;26.63;12.32;;;;;;;9.16;100.00;99512.63;4919479;29;20062;-77
2024/03/18 08:01:16;;;;;;;28.08;12.98;;;;;;;9.25;100.00;99514.38;4916061;29;20072;-78
2024/03/18 08:03:52;;;;;;;25.92;11.75;;;;;;;9.23;100.00;99507.53;4900227;29;20170;-77
2024/03/18 08:06:21;;;;;;;25.60;11.20;;;;;;;9.27;100.00;99520.34;4919570;29;20051;-77
2024/03/18 08:08:52;;;;;;;32.33;12.35;;;;;;;9.26;100.00;99507.22;4888035;29;20094;-78
2024/03/18 08:11:22;;;;;;;30.65;13.45;;;;;;;9.31;100.00;99516.41;4887814;29;20530;-77
2024/03/18 08:13:48;;;;;;;29.73;12.63;;;;;;;9.25;100.00;99519.66;4911633;29;20047;-77
2024/03/18 08:16:22;;;;;;;29.40;12.00;;;;;;;9.26;100.00;99523.97;4931030;29;20061;-77
2024/03/18 08:18:50;;;;;;;31.00;12.77;;;;;;;9.29;100.00;99523.66;4932578;29;20119;-77
2024/03/18 08:21:16;;;;;;;31.52;12.52;;;;;;;9.29;100.00;99528.13;4894837;29;20482;-77
2024/03/18 08:23:42;;;;;;;28.17;11.85;;;;;;;9.30;100.00;99525.31;4936021;29;20115;-79
2024/03/18 08:26:11;;;;;;;25.30;12.10;;;;;;;9.34;100.00;99529.34;4887699;29;20059;-79
2024/03/18 08:28:39;;;;;;;24.40;12.18;;;;;;;9.34;100.00;99524.06;4896575;29;20159;-78
2024/03/18 08:31:10;;;;;;;31.63;13.02;;;;;;;9.36;100.00;99537.16;4866146;29;20063;-77
2024/03/18 08:33:48;;;;;;;40.67;13.32;;;;;;;9.38;100.00;99533.34;4918858;29;20055;-78
2024/03/18 08:36:17;;;;;;;33.88;12.80;;;;;;;9.35;100.00;99530.19;4917690;28;20496;-78
2024/03/18 08:39:09;;;;;;;38.83;14.00;;;;;;;9.44;100.00;99530.09;4973676;28;20062;-79
2024/03/18 08:41:55;;;;;;;30.88;11.75;;;;;;;9.37;100.00;99529.03;4991497;28;20054;-78
2024/03/18 08:44:25;;;;;;;24.33;11.32;;;;;;;9.47;100.00;99532.44;4960500;28;20107;-79
2024/03/18 08:46:53;;;;;;;34.22;13.27;;;;;;;9.44;100.00;99542.53;4960030;28;20050;-79
2024/03/18 08:49:22;;;;;;;28.52;12.10;;;;;;;9.44;100.00;99542.53;4943436;28;20046;-78
2024/03/18 08:51:48;;;;;;;26.27;12.85;;;;;;;9.38;100.00;99546.59;4959006;28;20133;-79
2024/03/18 08:54:20;;;;;;;25.50;11.07;;;;;;;9.44;100.00;99538.03;4917543;29;20063;-79
2024/03/18 08:56:54;;;;;;;26.13;10.73;;;;;;;9.39;100.00;99540.34;4887240;29;20056;-78
2024/03/18 08:59:38;;;;;;;26.10;12.02;;;;;;;9.35;100.00;99538.97;4893225;28;20149;-78
2024/03/18 09:02:15;;;;;;;38.50;14.18;;;;;;;9.48;100.00;99549.19;4924503;28;20081;-78
2024/03/18 09:04:43;;;;;;;28.30;12.48;;;;;;;9.45;100.00;99539.72;4940226;28;20082;-81
2024/03/18 09:07:09;;;;;;;23.40;11.57;;;;;;;9.57;100.00;99538.50;4940461;28;20082;-79
2024/03/18 09:09:39;;;;;;;27.08;11.80;;;;;;;9.67;100.00;99543.72;4928466;28;20051;-79
2024/03/18 09:12:12;;;;;;;33.55;12.20;;;;;;;9.71;100.00;99550.34;4956519;28;20055;-78
2024/03/18 09:14:40;;;;;;;28.50;11.07;;;;;;;9.69;100.00;99550.50;4903862;29;20586;-79
2024/03/18 09:17:06;;;;;;;22.50;11.63;;;;;;;9.72;100.00;99550.19;4918142;29;20398;-79
2024/03/18 09:19:39;;;;;;;26.60;11.80;;;;;;;9.78;100.00;99557.53;4902473;29;20557;-79
2024/03/18 09:22:25;;;;;;;26.50;13.38;;;;;;;9.87;100.00;99556.59;4918468;29;20051;-78
2024/03/18 09:24:53;;;;;;;24.42;11.43;;;;;;;9.89;100.00;99564.41;4925747;28;20073;-79
2024/03/18 09:27:21;;;;;;;27.42;12.27;;;;;;;9.91;100.00;99559.78;4978566;28;20057;-79
2024/03/18 09:29:49;;;;;;;33.58;12.57;;;;;;;9.94;100.00;99567.44;4994899;28;20602;-79
2024/03/18 09:32:16;;;;;;;29.77;13.00;;;;;;;9.92;100.00;99564.09;4951027;28;20054;-80
2024/03/18 09:34:45;;;;;;;29.95;12.45;;;;;;;9.87;100.00;99559.25;4984950;28;20065;-78
2024/03/18 09:37:20;;;;;;;40.08;15.05;;;;;;;9.82;100.00;99561.56;4980273;28;20141;-79
2024/03/18 09:39:46;;;;;;;35.90;13.48;;;;;;;9.74;100.00;99561.50;4981030;28;20054;-80
2024/03/18 09:42:18;;;;;;;25.27;11.20;;;;;;;9.73;100.00;99562.47;4947425;28;20139;-80
2024/03/18 09:44:45;;;;;;;28.30;12.07;;;;;;;9.74;100.00;99564.16;5018807;28;20419;-78
2024/03/18 09:47:24;;;;;;;27.52;12.45;;;;;;;9.82;100.00;99561.56;5020437;28;20075;-79
2024/03/18 09:49:53;;;;;;;29.08;13.20;;;;;;;9.81;100.00;99567.84;4978689;28;20064;-79
2024/03/18 09:52:21;;;;;;;31.17;12.00;;;;;;;9.86;100.00;99564.72;4946051;28;20045;-78
2024/03/18 09:54:53;;;;;;;28.95;12.00;;;;;;;9.87;100.00;99561.91;4978737;28;20262;-81
2024/03/18 09:57:28;;;;;;;27.92;12.50;;;;;;;9.93;100.00;99563.94;4971192;28;20054;-78
2024/03/18 09:59:53;;;;;;;33.38;11.30;;;;;;;9.89;100.00;99569.72;4981945;28;20140;-78
2024/03/18 10:02:20;;;;;;;25.00;12.55;;;;;;;9.94;100.00;99572.72;4956836;28;20050;-79
2024/03/18 10:04:47;;;;;;;32.42;12.23;;;;;;;9.94;100.00;99567.44;4958877;28;20493;-79
2024/03/18 10:07:16;;;;;;;28.40;12.23;;;;;;;9.92;100.00;99562.28;4927248;28;20054;-79
2024/03/18 10:09:48;;;;;;;38.38;13.18;;;;;;;9.91;100.00;99565.09;4920385;29;20570;-79
2024/03/18 10:12:21;;;;;;;34.83;13.45;;;;;;;9.87;100.00;99569.84;4920391;29;20059;-78
2024/03/18 10:14:54;;;;;;;30.05;12.30;;;;;;;9.86;100.00;99570.03;4920520;29;20055;-79
2024/03/18 10:17:20;;;;;;;32.03;12.93;;;;;;;9.83;100.00;99565.03;4905867;29;20044;-79
2024/03/18 10:19:52;;;;;;;42.42;14.05;;;;;;;9.86;100.00;99570.84;4923152;28;20471;-78
2024/03/18 10:22:18;;;;;;;32.25;14.00;;;;;;;9.78;100.00;99572.59;4959156;28;20059;-83
2024/03/18 10:24:44;;;;;;;33.10;12.48;;;;;;;9.76;100.00;99570.09;4929543;28;20125;-79
2024/03/18 10:27:12;;;;;;;30.95;13.57;;;;;;;9.69;100.00;99581.50;4908059;29;20055;-78
2024/03/18 10:29:40;;;;;;;29.65;12.90;;;;;;;9.62;100.00;99581.28;4907580;29;20489;-78
2024/03/18 10:32:14;;;;;;;39.33;13.73;;;;;;;9.68;100.00;99571.88;4923024;28;20082;-79
2024/03/18 10:34:42;;;;;;;30.05;13.55;;;;;;;9.59;100.00;99575.47;4936423;29;20472;-78
2024/03/18 10:37:17;;;;;;;33.78;13.57;;;;;;;9.58;100.00;99576.44;4901690;29;20071;-78
2024/03/18 10:40:10;;;;;;;35.08;14.50;;;;;;;9.49;100.00;99578.19;4874212;29;20052;-78
2024/03/18 10:42:44;;;;;;;32.10;14.02;;;;;;;9.39;100.00;99574.78;4886196;29;20066;-79
2024/03/18 10:45:21;;;;;;;34.30;15.10;;;;;;;9.30;100.00;99577.50;4885415;29;20147;-79
2024/03/18 10:47:55;;;;;;;36.15;14.55;;;;;;;9.29;100.00;99581.97;4914859;29;20078;-79
2024/03/18 10:50:22;;;;;;;30.65;14.70;;;;;;;9.23;100.00;99579.09;4887772;29;20485;-80
2024/03/18 10:52:54;;;;;;;32.80;15.57;;;;;;;9.26;100.00;99587.56;4904167;29;20525;-78
2024/03/18 10:55:22;;;;;;;28.83;13.32;;;;;;;9.29;100.00;99587.28;4891089;29;20083;-80
2024/03/18 10:58:09;;;;;;;30.02;14.23;;;;;;;9.36;100.00;99587.50;4914560;29;20059;-79
2024/03/18 11:00:35;;;;;;;38.78;15.10;;;;;;;9.24;100.00;99589.53;4925355;29;20059;-79
2024/03/18 11:03:11;;;;;;;33.72;14.60;;;;;;;9.29;100.00;99589.94;4917636;29;20050;-78
2024/03/18 11:05:47;;;;;;;30.20;13.07;;;;;;;9.23;100.00;99595.81;4918680;29;20051;-79
2024/03/18 11:08:17;;;;;;;34.97;14.38;;;;;;;9.26;100.00;99603.47;4938177;29;20074;-76
2024/03/18 11:10:47;;;;;;;26.98;13.70;;;;;;;9.21;100.00;99594.31;4881448;29;20381;-76
2024/03/18 11:16:34;;;;;;;23.35;11.85;;;;;;;9.09;100.00;99592.84;4884999;29;20052;-80
2024/03/18 11:19:05;;;;;;;30.90;11.98;;;;;;;9.15;100.00;99590.44;4869770;29;20060;-79
2024/03/18 11:21:32;;;;;;;25.23;12.00;;;;;;;9.13;100.00;99594.22;4864939;29;20087;-73
2024/03/18 11:24:55;;;;;;;23.00;11.77;;;;;;;9.25;100.00;99606.28;4903685;29;20683;-79
2024/03/18 11:27:30;;;;;;;24.38;11.10;;;;;;;9.17;100.00;99601.72;4887587;29;20055;-76
2024/03/18 11:30:00;;;;;;;32.45;13.73;;;;;;;9.09;100.00;99604.28;4884670;29;20068;-77